sensor_id;sensor_type;location;lat;lon;timestamp;pressure;altitude;pressure_sealevel;temperature
10058;BMP180;5068;51.286;7.518;2023-04-25T00:01:18;98690.00;;;6.90
10058;BMP180;5068;51.286;7.518;2023-04-25T00:02:51;98689.00;;;6.90
10058;BMP180;5068;51.286;7.518;2023-04-25T00:04:25;98689.00;;;6.90
10058;BMP180;5068;51.286;7.518;2023-04-25T00:05:59;98687.00;;;6.90
10058;BMP180;5068;51.286;7.518;2023-04-25T00:07:34;98701.00;;;6.90
10058;BMP180;5068;51.286;7.518;2023-04-25T00:09:07;98686.00;;;6.90
10058;BMP180;5068;51.286;7.518;2023-04-25T00:10:40;98688.00;;;6.90
10058;BMP180;5068;51.286;7.518;2023-04-25T00:12:14;98685.00;;;6.90
10058;BMP180;5068;51.286;7.518;2023-04-25T00:13:49;98692.00;;;6.90
10058;BMP180;5068;51.286;7.518;2023-04-25T00:15:22;98693.00;;;6.90
10058;BMP180;5068;51.286;7.518;2023-04-25T00:16:56;98684.00;;;6.90
10058;BMP180;5068;51.286;7.518;2023-04-25T00:18:29;98687.00;;;6.90
10058;BMP180;5068;51.286;7.518;2023-04-25T00:20:07;98680.00;;;6.80
10058;BMP180;5068;51.286;7.518;2023-04-25T00:21:41;98688.00;;;6.80
10058;BMP180;5068;51.286;7.518;2023-04-25T00:23:16;98690.00;;;6.80
10058;BMP180;5068;51.286;7.518;2023-04-25T00:24:49;98692.00;;;6.80
10058;BMP180;5068;51.286;7.518;2023-04-25T00:26:25;98690.00;;;6.80
10058;BMP180;5068;51.286;7.518;2023-04-25T00:27:58;98691.00;;;6.80
10058;BMP180;5068;51.286;7.518;2023-04-25T00:29:33;98691.00;;;6.80
10058;BMP180;5068;51.286;7.518;2023-04-25T00:31:06;98696.00;;;6.80
10058;BMP180;5068;51.286;7.518;2023-04-25T00:32:39;98694.00;;;6.80
10058;BMP180;5068;51.286;7.518;2023-04-25T00:34:13;98692.00;;;6.80
10058;BMP180;5068;51.286;7.518;2023-04-25T00:35:45;98698.00;;;6.80
10058;BMP180;5068;51.286;7.518;2023-04-25T00:37:19;98702.00;;;6.80
10058;BMP180;5068;51.286;7.518;2023-04-25T00:38:53;98688.00;;;6.70
10058;BMP180;5068;51.286;7.518;2023-04-25T00:40:27;98677.00;;;6.70
10058;BMP180;5068;51.286;7.518;2023-04-25T00:42:00;98679.00;;;6.70
10058;BMP180;5068;51.286;7.518;2023-04-25T00:43:36;98684.00;;;6.70
10058;BMP180;5068;51.286;7.518;2023-04-25T00:45:14;98682.00;;;6.70
10058;BMP180;5068;51.286;7.518;2023-04-25T00:46:48;98674.00;;;6.70
10058;BMP180;5068;51.286;7.518;2023-04-25T00:48:22;98679.00;;;6.70
10058;BMP180;5068;51.286;7.518;2023-04-25T00:49:55;98676.00;;;6.60
10058;BMP180;5068;51.286;7.518;2023-04-25T00:51:29;98682.00;;;6.60
10058;BMP180;5068;51.286;7.518;2023-04-25T00:53:03;98680.00;;;6.60
10058;BMP180;5068;51.286;7.518;2023-04-25T00:54:37;98674.00;;;6.60
10058;BMP180;5068;51.286;7.518;2023-04-25T00:56:10;98683.00;;;6.70
10058;BMP180;5068;51.286;7.518;2023-04-25T00:57:44;98678.00;;;6.70
10058;BMP180;5068;51.286;7.518;2023-04-25T00:59:18;98669.00;;;6.70
10058;BMP180;5068;51.286;7.518;2023-04-25T01:00:53;98684.00;;;6.70
10058;BMP180;5068;51.286;7.518;2023-04-25T01:02:26;98675.00;;;6.70
10058;BMP180;5068;51.286;7.518;2023-04-25T01:04:01;98682.00;;;6.70
10058;BMP180;5068;51.286;7.518;2023-04-25T01:05:35;98680.00;;;6.70
10058;BMP180;5068;51.286;7.518;2023-04-25T01:07:09;98679.00;;;6.80
10058;BMP180;5068;51.286;7.518;2023-04-25T01:08:42;98674.00;;;6.80
10058;BMP180;5068;51.286;7.518;2023-04-25T01:10:15;98685.00;;;6.80
10058;BMP180;5068;51.286;7.518;2023-04-25T01:11:49;98678.00;;;6.80
10058;BMP180;5068;51.286;7.518;2023-04-25T01:13:22;98686.00;;;6.80
10058;BMP180;5068;51.286;7.518;2023-04-25T01:14:56;98680.00;;;6.80
10058;BMP180;5068;51.286;7.518;2023-04-25T01:16:30;98672.00;;;6.90
10058;BMP180;5068;51.286;7.518;2023-04-25T01:18:06;98672.00;;;6.90
10058;BMP180;5068;51.286;7.518;2023-04-25T01:19:40;98678.00;;;6.90
10058;BMP180;5068;51.286;7.518;2023-04-25T01:21:13;98681.00;;;7.00
10058;BMP180;5068;51.286;7.518;2023-04-25T01:22:47;98665.00;;;7.00
10058;BMP180;5068;51.286;7.518;2023-04-25T01:24:21;98675.00;;;7.00
10058;BMP180;5068;51.286;7.518;2023-04-25T01:25:55;98669.00;;;7.00
10058;BMP180;5068;51.286;7.518;2023-04-25T01:27:29;98670.00;;;7.10
10058;BMP180;5068;51.286;7.518;2023-04-25T01:29:04;98672.00;;;7.10
10058;BMP180;5068;51.286;7.518;2023-04-25T01:30:38;98680.00;;;7.10
10058;BMP180;5068;51.286;7.518;2023-04-25T01:32:13;98681.00;;;7.20
10058;BMP180;5068;51.286;7.518;2023-04-25T01:33:48;98679.00;;;7.20
10058;BMP180;5068;51.286;7.518;2023-04-25T01:35:22;98666.00;;;7.20
10058;BMP180;5068;51.286;7.518;2023-04-25T01:37:00;98676.00;;;7.20
10058;BMP180;5068;51.286;7.518;2023-04-25T01:38:34;98663.00;;;7.20
10058;BMP180;5068;51.286;7.518;2023-04-25T01:41:43;98675.00;;;7.30
10058;BMP180;5068;51.286;7.518;2023-04-25T01:43:16;98675.00;;;7.30
10058;BMP180;5068;51.286;7.518;2023-04-25T01:44:50;98671.00;;;7.40
10058;BMP180;5068;51.286;7.518;2023-04-25T01:46:22;98676.00;;;7.40
10058;BMP180;5068;51.286;7.518;2023-04-25T01:47:55;98680.00;;;7.50
10058;BMP180;5068;51.286;7.518;2023-04-25T01:49:31;98687.00;;;7.50
10058;BMP180;5068;51.286;7.518;2023-04-25T01:51:04;98683.00;;;7.60
10058;BMP180;5068;51.286;7.518;2023-04-25T01:52:39;98678.00;;;7.60
10058;BMP180;5068;51.286;7.518;2023-04-25T01:54:13;98687.00;;;7.60
10058;BMP180;5068;51.286;7.518;2023-04-25T01:55:46;98677.00;;;7.70
10058;BMP180;5068;51.286;7.518;2023-04-25T01:57:22;98685.00;;;7.70
10058;BMP180;5068;51.286;7.518;2023-04-25T01:58:56;98676.00;;;7.70
10058;BMP180;5068;51.286;7.518;2023-04-25T02:00:50;98679.00;;;7.80
10058;BMP180;5068;51.286;7.518;2023-04-25T02:02:23;98683.00;;;7.80
10058;BMP180;5068;51.286;7.518;2023-04-25T02:03:56;98686.00;;;7.90
10058;BMP180;5068;51.286;7.518;2023-04-25T02:05:36;98693.00;;;7.90
10058;BMP180;5068;51.286;7.518;2023-04-25T02:07:12;98687.00;;;7.90
10058;BMP180;5068;51.286;7.518;2023-04-25T02:08:56;98688.00;;;8.00
10058;BMP180;5068;51.286;7.518;2023-04-25T02:10:29;98694.00;;;8.00
10058;BMP180;5068;51.286;7.518;2023-04-25T02:12:13;98687.00;;;8.10
10058;BMP180;5068;51.286;7.518;2023-04-25T02:14:09;98689.00;;;8.10
10058;BMP180;5068;51.286;7.518;2023-04-25T02:16:04;98700.00;;;8.10
10058;BMP180;5068;51.286;7.518;2023-04-25T02:17:37;98693.00;;;8.20
10058;BMP180;5068;51.286;7.518;2023-04-25T02:19:11;98703.00;;;8.20
10058;BMP180;5068;51.286;7.518;2023-04-25T02:20:45;98698.00;;;8.30
10058;BMP180;5068;51.286;7.518;2023-04-25T02:22:18;98697.00;;;8.30
10058;BMP180;5068;51.286;7.518;2023-04-25T02:23:52;98692.00;;;8.30
10058;BMP180;5068;51.286;7.518;2023-04-25T02:25:27;98695.00;;;8.40
10058;BMP180;5068;51.286;7.518;2023-04-25T02:27:00;98692.00;;;8.40
10058;BMP180;5068;51.286;7.518;2023-04-25T02:28:33;98691.00;;;8.40
10058;BMP180;5068;51.286;7.518;2023-04-25T02:30:09;98704.00;;;8.40
10058;BMP180;5068;51.286;7.518;2023-04-25T02:31:43;98697.00;;;8.50
10058;BMP180;5068;51.286;7.518;2023-04-25T02:33:16;98694.00;;;8.50
10058;BMP180;5068;51.286;7.518;2023-04-25T02:34:49;98700.00;;;8.50
10058;BMP180;5068;51.286;7.518;2023-04-25T02:36:24;98706.00;;;8.60
10058;BMP180;5068;51.286;7.518;2023-04-25T02:37:58;98714.00;;;8.60
10058;BMP180;5068;51.286;7.518;2023-04-25T02:39:31;98701.00;;;8.60
10058;BMP180;5068;51.286;7.518;2023-04-25T02:41:06;98709.00;;;8.70
10058;BMP180;5068;51.286;7.518;2023-04-25T02:42:39;98708.00;;;8.70
10058;BMP180;5068;51.286;7.518;2023-04-25T02:44:12;98708.00;;;8.80
10058;BMP180;5068;51.286;7.518;2023-04-25T02:45:45;98699.00;;;8.80
10058;BMP180;5068;51.286;7.518;2023-04-25T02:47:19;98707.00;;;8.80
10058;BMP180;5068;51.286;7.518;2023-04-25T02:48:54;98704.00;;;8.80
10058;BMP180;5068;51.286;7.518;2023-04-25T02:50:27;98703.00;;;8.90
10058;BMP180;5068;51.286;7.518;2023-04-25T02:52:01;98706.00;;;8.90
10058;BMP180;5068;51.286;7.518;2023-04-25T02:53:34;98713.00;;;8.90
10058;BMP180;5068;51.286;7.518;2023-04-25T02:55:08;98708.00;;;8.90
10058;BMP180;5068;51.286;7.518;2023-04-25T02:56:44;98699.00;;;9.00
10058;BMP180;5068;51.286;7.518;2023-04-25T02:58:21;98706.00;;;9.00
10058;BMP180;5068;51.286;7.518;2023-04-25T02:59:57;98712.00;;;9.00
10058;BMP180;5068;51.286;7.518;2023-04-25T03:01:30;98706.00;;;9.00
10058;BMP180;5068;51.286;7.518;2023-04-25T03:03:03;98700.00;;;9.00
10058;BMP180;5068;51.286;7.518;2023-04-25T03:04:37;98710.00;;;9.10
10058;BMP180;5068;51.286;7.518;2023-04-25T03:06:11;98704.00;;;9.10
10058;BMP180;5068;51.286;7.518;2023-04-25T03:07:44;98697.00;;;9.10
10058;BMP180;5068;51.286;7.518;2023-04-25T03:09:17;98703.00;;;9.10
10058;BMP180;5068;51.286;7.518;2023-04-25T03:10:51;98700.00;;;9.20
10058;BMP180;5068;51.286;7.518;2023-04-25T03:12:28;98701.00;;;9.20
10058;BMP180;5068;51.286;7.518;2023-04-25T03:14:02;98702.00;;;9.20
10058;BMP180;5068;51.286;7.518;2023-04-25T03:15:35;98698.00;;;9.20
10058;BMP180;5068;51.286;7.518;2023-04-25T03:17:08;98701.00;;;9.20
10058;BMP180;5068;51.286;7.518;2023-04-25T03:18:42;98695.00;;;9.20
10058;BMP180;5068;51.286;7.518;2023-04-25T03:20:15;98701.00;;;9.20
10058;BMP180;5068;51.286;7.518;2023-04-25T03:21:48;98715.00;;;9.20
10058;BMP180;5068;51.286;7.518;2023-04-25T03:23:21;98712.00;;;9.30
10058;BMP180;5068;51.286;7.518;2023-04-25T03:24:54;98710.00;;;9.30
10058;BMP180;5068;51.286;7.518;2023-04-25T03:26:28;98705.00;;;9.30
10058;BMP180;5068;51.286;7.518;2023-04-25T03:28:03;98711.00;;;9.30
10058;BMP180;5068;51.286;7.518;2023-04-25T03:29:37;98722.00;;;9.30
10058;BMP180;5068;51.286;7.518;2023-04-25T03:31:10;98714.00;;;9.30
10058;BMP180;5068;51.286;7.518;2023-04-25T03:32:44;98715.00;;;9.30
10058;BMP180;5068;51.286;7.518;2023-04-25T03:34:21;98716.00;;;9.40
10058;BMP180;5068;51.286;7.518;2023-04-25T03:35:56;98715.00;;;9.40
10058;BMP180;5068;51.286;7.518;2023-04-25T03:37:29;98714.00;;;9.30
10058;BMP180;5068;51.286;7.518;2023-04-25T03:39:02;98709.00;;;9.30
10058;BMP180;5068;51.286;7.518;2023-04-25T03:40:36;98719.00;;;9.30
10058;BMP180;5068;51.286;7.518;2023-04-25T03:42:18;98724.00;;;9.30
10058;BMP180;5068;51.286;7.518;2023-04-25T03:43:56;98717.00;;;9.30
10058;BMP180;5068;51.286;7.518;2023-04-25T03:45:29;98728.00;;;9.40
10058;BMP180;5068;51.286;7.518;2023-04-25T03:47:02;98725.00;;;9.40
10058;BMP180;5068;51.286;7.518;2023-04-25T03:48:36;98735.00;;;9.40
10058;BMP180;5068;51.286;7.518;2023-04-25T03:50:10;98731.00;;;9.40
10058;BMP180;5068;51.286;7.518;2023-04-25T03:51:43;98734.00;;;9.40
10058;BMP180;5068;51.286;7.518;2023-04-25T03:53:16;98735.00;;;9.40
10058;BMP180;5068;51.286;7.518;2023-04-25T03:55:09;98733.00;;;9.40
10058;BMP180;5068;51.286;7.518;2023-04-25T03:56:43;98739.00;;;9.40
10058;BMP180;5068;51.286;7.518;2023-04-25T03:58:23;98734.00;;;9.50
10058;BMP180;5068;51.286;7.518;2023-04-25T03:59:57;98733.00;;;9.40
10058;BMP180;5068;51.286;7.518;2023-04-25T04:01:33;98742.00;;;9.40
10058;BMP180;5068;51.286;7.518;2023-04-25T04:03:07;98744.00;;;9.40
10058;BMP180;5068;51.286;7.518;2023-04-25T04:04:40;98748.00;;;9.40
10058;BMP180;5068;51.286;7.518;2023-04-25T04:06:17;98748.00;;;9.40
10058;BMP180;5068;51.286;7.518;2023-04-25T04:07:54;98747.00;;;9.40
10058;BMP180;5068;51.286;7.518;2023-04-25T04:09:28;98751.00;;;9.50
10058;BMP180;5068;51.286;7.518;2023-04-25T04:11:03;98741.00;;;9.50
10058;BMP180;5068;51.286;7.518;2023-04-25T04:12:38;98750.00;;;9.50
10058;BMP180;5068;51.286;7.518;2023-04-25T04:14:11;98748.00;;;9.50
10058;BMP180;5068;51.286;7.518;2023-04-25T04:15:50;98753.00;;;9.50
10058;BMP180;5068;51.286;7.518;2023-04-25T04:17:23;98747.00;;;9.50
10058;BMP180;5068;51.286;7.518;2023-04-25T04:18:57;98750.00;;;9.50
10058;BMP180;5068;51.286;7.518;2023-04-25T04:20:30;98748.00;;;9.50
10058;BMP180;5068;51.286;7.518;2023-04-25T04:22:03;98750.00;;;9.50
10058;BMP180;5068;51.286;7.518;2023-04-25T04:23:37;98750.00;;;9.50
10058;BMP180;5068;51.286;7.518;2023-04-25T04:25:12;98748.00;;;9.50
10058;BMP180;5068;51.286;7.518;2023-04-25T04:27:08;98745.00;;;9.50
10058;BMP180;5068;51.286;7.518;2023-04-25T04:28:49;98757.00;;;9.50
10058;BMP180;5068;51.286;7.518;2023-04-25T04:30:42;98742.00;;;9.50
10058;BMP180;5068;51.286;7.518;2023-04-25T04:32:19;98743.00;;;9.50
10058;BMP180;5068;51.286;7.518;2023-04-25T04:33:51;98758.00;;;9.50
10058;BMP180;5068;51.286;7.518;2023-04-25T04:35:25;98755.00;;;9.50
10058;BMP180;5068;51.286;7.518;2023-04-25T04:36:58;98747.00;;;9.40
10058;BMP180;5068;51.286;7.518;2023-04-25T04:38:32;98744.00;;;9.40
10058;BMP180;5068;51.286;7.518;2023-04-25T04:40:09;98752.00;;;9.40
10058;BMP180;5068;51.286;7.518;2023-04-25T04:41:48;98753.00;;;9.40
10058;BMP180;5068;51.286;7.518;2023-04-25T04:43:43;98756.00;;;9.30
10058;BMP180;5068;51.286;7.518;2023-04-25T04:45:32;98764.00;;;9.30
10058;BMP180;5068;51.286;7.518;2023-04-25T04:47:27;98756.00;;;9.30
10058;BMP180;5068;51.286;7.518;2023-04-25T04:49:41;98768.00;;;9.30
10058;BMP180;5068;51.286;7.518;2023-04-25T04:51:46;98760.00;;;9.30
10058;BMP180;5068;51.286;7.518;2023-04-25T04:53:39;98759.00;;;9.30
10058;BMP180;5068;51.286;7.518;2023-04-25T04:55:48;98768.00;;;9.30
10058;BMP180;5068;51.286;7.518;2023-04-25T04:57:32;98774.00;;;9.30
10058;BMP180;5068;51.286;7.518;2023-04-25T04:59:18;98774.00;;;9.20
10058;BMP180;5068;51.286;7.518;2023-04-25T05:01:05;98768.00;;;9.20
10058;BMP180;5068;51.286;7.518;2023-04-25T05:02:59;98772.00;;;9.20
10058;BMP180;5068;51.286;7.518;2023-04-25T05:04:59;98775.00;;;9.20
10058;BMP180;5068;51.286;7.518;2023-04-25T05:06:55;98770.00;;;9.20
10058;BMP180;5068;51.286;7.518;2023-04-25T05:08:49;98785.00;;;9.20
10058;BMP180;5068;51.286;7.518;2023-04-25T05:10:48;98788.00;;;9.20
10058;BMP180;5068;51.286;7.518;2023-04-25T05:12:37;98781.00;;;9.30
10058;BMP180;5068;51.286;7.518;2023-04-25T05:14:29;98786.00;;;9.30
10058;BMP180;5068;51.286;7.518;2023-04-25T05:16:14;98788.00;;;9.30
10058;BMP180;5068;51.286;7.518;2023-04-25T05:18:20;98795.00;;;9.30
10058;BMP180;5068;51.286;7.518;2023-04-25T05:20:30;98800.00;;;9.30
10058;BMP180;5068;51.286;7.518;2023-04-25T05:22:27;98804.00;;;9.30
10058;BMP180;5068;51.286;7.518;2023-04-25T05:24:17;98806.00;;;9.30
10058;BMP180;5068;51.286;7.518;2023-04-25T05:26:10;98809.00;;;9.30
10058;BMP180;5068;51.286;7.518;2023-04-25T05:28:18;98817.00;;;9.40
10058;BMP180;5068;51.286;7.518;2023-04-25T05:30:09;98824.00;;;9.40
10058;BMP180;5068;51.286;7.518;2023-04-25T05:32:11;98826.00;;;9.40
10058;BMP180;5068;51.286;7.518;2023-04-25T05:33:46;98826.00;;;9.40
10058;BMP180;5068;51.286;7.518;2023-04-25T05:35:20;98820.00;;;9.40
10058;BMP180;5068;51.286;7.518;2023-04-25T05:36:55;98820.00;;;9.40
10058;BMP180;5068;51.286;7.518;2023-04-25T05:38:29;98822.00;;;9.40
10058;BMP180;5068;51.286;7.518;2023-04-25T05:40:40;98825.00;;;9.40
10058;BMP180;5068;51.286;7.518;2023-04-25T05:42:24;98822.00;;;9.40
10058;BMP180;5068;51.286;7.518;2023-04-25T05:44:12;98825.00;;;9.40
10058;BMP180;5068;51.286;7.518;2023-04-25T05:46:19;98833.00;;;9.40
10058;BMP180;5068;51.286;7.518;2023-04-25T05:48:11;98834.00;;;9.40
10058;BMP180;5068;51.286;7.518;2023-04-25T05:50:15;98831.00;;;9.30
10058;BMP180;5068;51.286;7.518;2023-04-25T05:51:56;98838.00;;;9.30
10058;BMP180;5068;51.286;7.518;2023-04-25T05:53:51;98840.00;;;9.20
10058;BMP180;5068;51.286;7.518;2023-04-25T05:55:25;98839.00;;;9.20
10058;BMP180;5068;51.286;7.518;2023-04-25T05:57:00;98839.00;;;9.20
10058;BMP180;5068;51.286;7.518;2023-04-25T05:58:34;98842.00;;;9.20
10058;BMP180;5068;51.286;7.518;2023-04-25T06:00:09;98838.00;;;9.20
10058;BMP180;5068;51.286;7.518;2023-04-25T06:01:45;98846.00;;;9.20
10058;BMP180;5068;51.286;7.518;2023-04-25T06:03:20;98846.00;;;9.30
10058;BMP180;5068;51.286;7.518;2023-04-25T06:04:54;98851.00;;;9.30
10058;BMP180;5068;51.286;7.518;2023-04-25T06:06:29;98852.00;;;9.30
10058;BMP180;5068;51.286;7.518;2023-04-25T06:08:04;98851.00;;;9.30
10058;BMP180;5068;51.286;7.518;2023-04-25T06:09:37;98864.00;;;9.40
10058;BMP180;5068;51.286;7.518;2023-04-25T06:11:11;98864.00;;;9.40
10058;BMP180;5068;51.286;7.518;2023-04-25T06:12:44;98864.00;;;9.40
10058;BMP180;5068;51.286;7.518;2023-04-25T06:14:19;98869.00;;;9.40
10058;BMP180;5068;51.286;7.518;2023-04-25T06:15:54;98868.00;;;9.40
10058;BMP180;5068;51.286;7.518;2023-04-25T06:17:27;98870.00;;;9.40
10058;BMP180;5068;51.286;7.518;2023-04-25T06:19:01;98867.00;;;9.40
10058;BMP180;5068;51.286;7.518;2023-04-25T06:20:34;98875.00;;;9.40
10058;BMP180;5068;51.286;7.518;2023-04-25T06:22:09;98864.00;;;9.40
10058;BMP180;5068;51.286;7.518;2023-04-25T06:23:45;98869.00;;;9.40
10058;BMP180;5068;51.286;7.518;2023-04-25T06:25:24;98872.00;;;9.50
10058;BMP180;5068;51.286;7.518;2023-04-25T06:26:58;98876.00;;;9.50
10058;BMP180;5068;51.286;7.518;2023-04-25T06:28:31;98866.00;;;9.50
10058;BMP180;5068;51.286;7.518;2023-04-25T06:30:07;98869.00;;;9.50
10058;BMP180;5068;51.286;7.518;2023-04-25T06:31:40;98874.00;;;9.60
10058;BMP180;5068;51.286;7.518;2023-04-25T06:33:14;98865.00;;;9.60
10058;BMP180;5068;51.286;7.518;2023-04-25T06:34:47;98868.00;;;9.60
10058;BMP180;5068;51.286;7.518;2023-04-25T06:36:21;98866.00;;;9.70
10058;BMP180;5068;51.286;7.518;2023-04-25T06:38:00;98872.00;;;9.70
10058;BMP180;5068;51.286;7.518;2023-04-25T06:39:35;98867.00;;;9.70
10058;BMP180;5068;51.286;7.518;2023-04-25T06:41:11;98878.00;;;9.80
10058;BMP180;5068;51.286;7.518;2023-04-25T06:42:45;98865.00;;;9.80
10058;BMP180;5068;51.286;7.518;2023-04-25T06:44:42;98872.00;;;9.90
10058;BMP180;5068;51.286;7.518;2023-04-25T06:46:18;98876.00;;;9.90
10058;BMP180;5068;51.286;7.518;2023-04-25T06:47:53;98870.00;;;9.90
10058;BMP180;5068;51.286;7.518;2023-04-25T06:49:27;98860.00;;;10.00
10058;BMP180;5068;51.286;7.518;2023-04-25T06:51:00;98874.00;;;10.00
10058;BMP180;5068;51.286;7.518;2023-04-25T06:52:33;98866.00;;;10.00
10058;BMP180;5068;51.286;7.518;2023-04-25T06:54:08;98868.00;;;10.10
10058;BMP180;5068;51.286;7.518;2023-04-25T06:55:49;98876.00;;;10.10
10058;BMP180;5068;51.286;7.518;2023-04-25T06:57:25;98871.00;;;10.20
10058;BMP180;5068;51.286;7.518;2023-04-25T06:59:00;98873.00;;;10.20
10058;BMP180;5068;51.286;7.518;2023-04-25T07:00:36;98877.00;;;10.20
10058;BMP180;5068;51.286;7.518;2023-04-25T07:02:09;98880.00;;;10.20
10058;BMP180;5068;51.286;7.518;2023-04-25T07:03:43;98879.00;;;10.20
10058;BMP180;5068;51.286;7.518;2023-04-25T07:05:21;98881.00;;;10.20
10058;BMP180;5068;51.286;7.518;2023-04-25T07:06:55;98875.00;;;10.20
10058;BMP180;5068;51.286;7.518;2023-04-25T07:08:38;98878.00;;;10.20
10058;BMP180;5068;51.286;7.518;2023-04-25T07:10:13;98878.00;;;10.20
10058;BMP180;5068;51.286;7.518;2023-04-25T07:11:46;98884.00;;;10.20
10058;BMP180;5068;51.286;7.518;2023-04-25T07:13:19;98885.00;;;10.20
10058;BMP180;5068;51.286;7.518;2023-04-25T07:14:52;98882.00;;;10.10
10058;BMP180;5068;51.286;7.518;2023-04-25T07:16:26;98868.00;;;10.10
10058;BMP180;5068;51.286;7.518;2023-04-25T07:17:59;98893.00;;;10.10
10058;BMP180;5068;51.286;7.518;2023-04-25T07:19:33;98880.00;;;10.10
10058;BMP180;5068;51.286;7.518;2023-04-25T07:21:07;98885.00;;;10.10
10058;BMP180;5068;51.286;7.518;2023-04-25T07:22:41;98888.00;;;10.20
10058;BMP180;5068;51.286;7.518;2023-04-25T07:24:15;98897.00;;;10.20
10058;BMP180;5068;51.286;7.518;2023-04-25T07:25:52;98890.00;;;10.20
10058;BMP180;5068;51.286;7.518;2023-04-25T07:27:28;98891.00;;;10.20
10058;BMP180;5068;51.286;7.518;2023-04-25T07:29:28;98893.00;;;10.30
10058;BMP180;5068;51.286;7.518;2023-04-25T07:31:04;98893.00;;;10.30
10058;BMP180;5068;51.286;7.518;2023-04-25T07:32:38;98905.00;;;10.30
10058;BMP180;5068;51.286;7.518;2023-04-25T07:34:11;98895.00;;;10.40
10058;BMP180;5068;51.286;7.518;2023-04-25T07:35:55;98902.00;;;10.40
10058;BMP180;5068;51.286;7.518;2023-04-25T07:37:33;98905.00;;;10.40
10058;BMP180;5068;51.286;7.518;2023-04-25T07:39:19;98895.00;;;10.50
10058;BMP180;5068;51.286;7.518;2023-04-25T07:40:53;98906.00;;;10.50
10058;BMP180;5068;51.286;7.518;2023-04-25T07:42:27;98901.00;;;10.50
10058;BMP180;5068;51.286;7.518;2023-04-25T07:44:01;98910.00;;;10.50
10058;BMP180;5068;51.286;7.518;2023-04-25T07:45:35;98903.00;;;10.50
10058;BMP180;5068;51.286;7.518;2023-04-25T07:47:10;98902.00;;;10.50
10058;BMP180;5068;51.286;7.518;2023-04-25T07:48:43;98906.00;;;10.50
10058;BMP180;5068;51.286;7.518;2023-04-25T07:50:16;98908.00;;;10.50
10058;BMP180;5068;51.286;7.518;2023-04-25T07:51:51;98911.00;;;10.50
10058;BMP180;5068;51.286;7.518;2023-04-25T07:53:25;98908.00;;;10.50
10058;BMP180;5068;51.286;7.518;2023-04-25T07:55:05;98921.00;;;10.60
10058;BMP180;5068;51.286;7.518;2023-04-25T07:56:48;98913.00;;;10.60
10058;BMP180;5068;51.286;7.518;2023-04-25T07:58:27;98917.00;;;10.60
10058;BMP180;5068;51.286;7.518;2023-04-25T08:00:06;98905.00;;;10.60
10058;BMP180;5068;51.286;7.518;2023-04-25T08:01:44;98925.00;;;10.60
10058;BMP180;5068;51.286;7.518;2023-04-25T08:03:18;98921.00;;;10.60
10058;BMP180;5068;51.286;7.518;2023-04-25T08:04:52;98931.00;;;10.70
10058;BMP180;5068;51.286;7.518;2023-04-25T08:06:25;98929.00;;;10.70
10058;BMP180;5068;51.286;7.518;2023-04-25T08:08:11;98935.00;;;10.70
10058;BMP180;5068;51.286;7.518;2023-04-25T08:09:44;98932.00;;;10.70
10058;BMP180;5068;51.286;7.518;2023-04-25T08:11:26;98942.00;;;10.80
10058;BMP180;5068;51.286;7.518;2023-04-25T08:13:01;98937.00;;;10.80
10058;BMP180;5068;51.286;7.518;2023-04-25T08:14:34;98947.00;;;10.80
10058;BMP180;5068;51.286;7.518;2023-04-25T08:16:10;98947.00;;;10.80
10058;BMP180;5068;51.286;7.518;2023-04-25T08:17:43;98953.00;;;10.90
10058;BMP180;5068;51.286;7.518;2023-04-25T08:19:17;98964.00;;;10.80
10058;BMP180;5068;51.286;7.518;2023-04-25T08:20:51;98962.00;;;10.90
10058;BMP180;5068;51.286;7.518;2023-04-25T08:22:25;98967.00;;;10.90
10058;BMP180;5068;51.286;7.518;2023-04-25T08:24:12;98962.00;;;10.90
10058;BMP180;5068;51.286;7.518;2023-04-25T08:25:45;98968.00;;;10.90
10058;BMP180;5068;51.286;7.518;2023-04-25T08:27:21;98966.00;;;10.90
10058;BMP180;5068;51.286;7.518;2023-04-25T08:28:56;98966.00;;;10.90
10058;BMP180;5068;51.286;7.518;2023-04-25T08:30:30;98974.00;;;10.90
10058;BMP180;5068;51.286;7.518;2023-04-25T08:32:03;98971.00;;;10.90
10058;BMP180;5068;51.286;7.518;2023-04-25T08:33:39;98976.00;;;11.00
10058;BMP180;5068;51.286;7.518;2023-04-25T08:35:29;98986.00;;;11.00
10058;BMP180;5068;51.286;7.518;2023-04-25T08:37:02;98981.00;;;11.00
10058;BMP180;5068;51.286;7.518;2023-04-25T08:38:49;98983.00;;;11.10
10058;BMP180;5068;51.286;7.518;2023-04-25T08:40:28;98978.00;;;11.10
10058;BMP180;5068;51.286;7.518;2023-04-25T08:42:12;98977.00;;;11.10
10058;BMP180;5068;51.286;7.518;2023-04-25T08:43:49;98982.00;;;11.10
10058;BMP180;5068;51.286;7.518;2023-04-25T08:45:27;98994.00;;;11.10
10058;BMP180;5068;51.286;7.518;2023-04-25T08:47:03;98984.00;;;11.20
10058;BMP180;5068;51.286;7.518;2023-04-25T08:48:45;98990.00;;;11.20
10058;BMP180;5068;51.286;7.518;2023-04-25T08:50:23;98980.00;;;11.30
10058;BMP180;5068;51.286;7.518;2023-04-25T08:52:00;98987.00;;;11.40
10058;BMP180;5068;51.286;7.518;2023-04-25T08:53:34;98981.00;;;11.40
10058;BMP180;5068;51.286;7.518;2023-04-25T08:55:12;98986.00;;;11.40
10058;BMP180;5068;51.286;7.518;2023-04-25T08:56:47;99014.00;;;11.40
10058;BMP180;5068;51.286;7.518;2023-04-25T08:58:21;99001.00;;;11.40
10058;BMP180;5068;51.286;7.518;2023-04-25T08:59:57;99007.00;;;11.40
10058;BMP180;5068;51.286;7.518;2023-04-25T09:01:31;99011.00;;;11.30
10058;BMP180;5068;51.286;7.518;2023-04-25T09:03:05;99008.00;;;11.30
10058;BMP180;5068;51.286;7.518;2023-04-25T09:04:39;99001.00;;;11.30
10058;BMP180;5068;51.286;7.518;2023-04-25T09:06:13;99004.00;;;11.30
10058;BMP180;5068;51.286;7.518;2023-04-25T09:07:48;99005.00;;;11.40
10058;BMP180;5068;51.286;7.518;2023-04-25T09:09:23;99017.00;;;11.40
10058;BMP180;5068;51.286;7.518;2023-04-25T09:10:56;99014.00;;;11.40
10058;BMP180;5068;51.286;7.518;2023-04-25T09:12:30;99013.00;;;11.50
10058;BMP180;5068;51.286;7.518;2023-04-25T09:14:13;99017.00;;;11.50
10058;BMP180;5068;51.286;7.518;2023-04-25T09:16:03;99013.00;;;11.60
10058;BMP180;5068;51.286;7.518;2023-04-25T09:17:59;99025.00;;;11.60
10058;BMP180;5068;51.286;7.518;2023-04-25T09:19:37;99026.00;;;11.60
10058;BMP180;5068;51.286;7.518;2023-04-25T09:21:24;99022.00;;;11.60
10058;BMP180;5068;51.286;7.518;2023-04-25T09:23:02;99042.00;;;11.60
10058;BMP180;5068;51.286;7.518;2023-04-25T09:24:39;99043.00;;;11.60
10058;BMP180;5068;51.286;7.518;2023-04-25T09:26:16;99061.00;;;11.60
10058;BMP180;5068;51.286;7.518;2023-04-25T09:27:51;99060.00;;;11.60
10058;BMP180;5068;51.286;7.518;2023-04-25T09:29:36;99039.00;;;11.60
10058;BMP180;5068;51.286;7.518;2023-04-25T09:31:10;99035.00;;;11.60
10058;BMP180;5068;51.286;7.518;2023-04-25T09:32:49;99037.00;;;11.60
10058;BMP180;5068;51.286;7.518;2023-04-25T09:34:25;99044.00;;;11.60
10058;BMP180;5068;51.286;7.518;2023-04-25T09:36:04;99036.00;;;11.70
10058;BMP180;5068;51.286;7.518;2023-04-25T09:37:50;99038.00;;;11.70
10058;BMP180;5068;51.286;7.518;2023-04-25T09:39:57;99043.00;;;11.70